createdAt,value
2022-08-27T00:01:58.156Z,22.20
2022-08-27T00:04:26.370Z,22.20
2022-08-27T00:06:54.448Z,22.20
2022-08-27T00:09:27.084Z,22.10
2022-08-27T00:11:57.473Z,22.10
2022-08-27T00:14:25.841Z,22.00
2022-08-27T00:16:53.806Z,22.00
2022-08-27T00:19:21.938Z,22.00
2022-08-27T00:21:49.846Z,22.00
2022-08-27T00:24:18.209Z,21.90
2022-08-27T00:26:46.196Z,21.90
2022-08-27T00:29:15.527Z,21.90
2022-08-27T00:31:43.633Z,22.00
2022-08-27T00:34:12.938Z,22.00
2022-08-27T00:36:41.464Z,22.00
2022-08-27T00:39:09.877Z,22.10
2022-08-27T00:41:38.743Z,22.10
2022-08-27T00:44:07.172Z,22.10
2022-08-27T00:46:38.976Z,22.10
2022-08-27T00:49:08.965Z,22.10
2022-08-27T00:51:37.641Z,22.10
2022-08-27T00:54:07.226Z,22.10
2022-08-27T00:56:36.578Z,22.10
2022-08-27T00:59:04.961Z,22.20
2022-08-27T01:01:35.937Z,22.20
2022-08-27T01:04:06.383Z,22.20
2022-08-27T01:06:36.521Z,22.10
2022-08-27T01:09:06.370Z,22.10
2022-08-27T01:11:34.550Z,22.10
2022-08-27T01:14:03.785Z,22.10
2022-08-27T01:16:34.353Z,22.10
2022-08-27T01:19:02.820Z,22.10
2022-08-27T01:21:34.004Z,22.10
2022-08-27T01:24:04.142Z,22.10
2022-08-27T01:26:33.716Z,22.10
2022-08-27T01:29:01.719Z,22.10
2022-08-27T01:31:29.879Z,22.10
2022-08-27T01:33:58.880Z,22.10
2022-08-27T01:36:27.183Z,22.10
2022-08-27T01:38:55.836Z,22.10
2022-08-27T01:41:26.214Z,22.20
2022-08-27T01:43:55.474Z,22.20
2022-08-27T01:46:25.509Z,22.20
2022-08-27T01:48:53.638Z,22.20
2022-08-27T01:51:22.140Z,22.20
2022-08-27T01:53:50.100Z,22.20
2022-08-27T01:56:18.297Z,22.20
2022-08-27T01:58:46.154Z,22.20
2022-08-27T02:01:17.272Z,22.20
2022-08-27T02:03:47.353Z,22.20
2022-08-27T02:06:16.601Z,22.20
2022-08-27T02:08:44.843Z,22.10
2022-08-27T02:11:14.178Z,22.10
2022-08-27T02:13:42.095Z,22.10
2022-08-27T02:16:10.283Z,22.10
2022-08-27T02:18:41.756Z,22.00
2022-08-27T02:21:10.684Z,22.00
2022-08-27T02:23:39.619Z,22.00
2022-08-27T02:26:07.741Z,21.90
2022-08-27T02:28:35.996Z,21.80
2022-08-27T02:31:04.829Z,21.70
2022-08-27T02:33:34.616Z,21.60
2022-08-27T02:36:04.219Z,21.60
2022-08-27T02:38:34.177Z,21.50
2022-08-27T02:41:02.092Z,21.40
2022-08-27T02:43:29.959Z,21.40
2022-08-27T02:45:57.887Z,21.30
2022-08-27T02:48:25.793Z,21.30
2022-08-27T02:50:54.767Z,21.20
2022-08-27T02:53:24.331Z,21.20
2022-08-27T02:55:52.926Z,21.10
2022-08-27T02:58:20.884Z,21.10
2022-08-27T03:00:48.933Z,21.10
2022-08-27T03:03:16.870Z,21.10
2022-08-27T03:05:45.057Z,21.10
2022-08-27T03:08:13.109Z,21.20
2022-08-27T03:10:42.384Z,21.30
2022-08-27T03:13:10.269Z,21.40
2022-08-27T03:15:38.218Z,21.40
2022-08-27T03:18:21.746Z,21.50
2022-08-27T03:20:50.282Z,21.50
2022-08-27T03:23:19.150Z,21.60
2022-08-27T03:25:51.423Z,21.60
2022-08-27T03:28:23.050Z,21.60
2022-08-27T03:30:52.140Z,21.60
2022-08-27T03:33:20.699Z,21.60
2022-08-27T03:35:51.881Z,21.50
2022-08-27T03:38:30.987Z,21.50
2022-08-27T03:41:00.394Z,21.40
2022-08-27T03:43:28.866Z,21.40
2022-08-27T03:46:02.107Z,21.30
2022-08-27T03:48:30.832Z,21.20
2022-08-27T03:50:58.799Z,21.10
2022-08-27T03:53:28.324Z,21.00
2022-08-27T03:55:56.308Z,21.00
2022-08-27T03:58:25.616Z,21.00
2022-08-27T04:00:53.600Z,21.00
2022-08-27T04:03:21.700Z,21.10
2022-08-27T04:05:53.981Z,21.10
2022-08-27T04:08:23.012Z,21.20
2022-08-27T04:10:51.137Z,21.20
2022-08-27T04:13:19.302Z,21.20
2022-08-27T04:15:49.722Z,21.30
2022-08-27T04:18:18.104Z,21.30
2022-08-27T04:20:46.494Z,21.30
2022-08-27T04:23:14.987Z,21.40
2022-08-27T04:25:43.718Z,21.40
2022-08-27T04:28:12.186Z,21.30
2022-08-27T04:30:41.575Z,21.20
2022-08-27T04:33:11.626Z,21.30
2022-08-27T04:35:39.631Z,21.30
2022-08-27T04:38:07.819Z,21.40
2022-08-27T04:40:55.574Z,21.40
2022-08-27T04:43:23.797Z,21.50
2022-08-27T04:45:51.681Z,21.50
2022-08-27T04:48:20.949Z,21.50
2022-08-27T04:50:48.876Z,21.50
2022-08-27T04:53:17.731Z,21.50
2022-08-27T04:55:46.859Z,21.60
2022-08-27T04:58:15.460Z,21.60
2022-08-27T05:00:43.874Z,21.60
2022-08-27T05:03:11.794Z,21.70
2022-08-27T05:05:41.629Z,21.70
2022-08-27T05:08:12.479Z,21.70
2022-08-27T05:10:41.629Z,21.80
2022-08-27T05:13:09.656Z,21.80
2022-08-27T05:15:38.050Z,21.80
2022-08-27T05:18:07.063Z,21.90
2022-08-27T05:20:35.830Z,22.00
2022-08-27T05:23:05.070Z,22.10
2022-08-27T05:25:32.960Z,22.10
2022-08-27T05:28:00.938Z,22.20
2022-08-27T05:30:28.830Z,22.20
2022-08-27T05:32:56.846Z,22.30
2022-08-27T05:35:24.686Z,22.30
2022-08-27T05:37:52.572Z,22.40
2022-08-27T05:40:23.435Z,22.40
2022-08-27T05:42:51.396Z,22.40
2022-08-27T05:45:19.359Z,22.50
2022-08-27T05:47:47.367Z,22.50
2022-08-27T05:50:15.310Z,22.50
2022-08-27T05:52:43.227Z,22.50
2022-08-27T05:55:12.318Z,22.60
2022-08-27T05:57:41.522Z,22.60
2022-08-27T06:00:35.568Z,22.60
2022-08-27T06:03:03.526Z,22.60
2022-08-27T06:05:31.582Z,22.60
2022-08-27T06:07:59.631Z,22.60
2022-08-27T06:10:27.596Z,22.60
2022-08-27T06:12:57.258Z,22.60
2022-08-27T06:15:25.325Z,22.70
2022-08-27T06:17:53.558Z,22.80
2022-08-27T06:20:21.780Z,22.80
2022-08-27T06:22:49.582Z,22.80
2022-08-27T06:25:17.620Z,22.80
2022-08-27T06:27:45.955Z,22.80
2022-08-27T06:30:17.528Z,22.80
2022-08-27T06:32:45.633Z,22.90
2022-08-27T06:35:13.572Z,23.00
2022-08-27T06:37:41.475Z,23.00
2022-08-27T06:40:10.812Z,23.10
2022-08-27T06:42:39.063Z,23.10
2022-08-27T06:45:08.537Z,23.20
2022-08-27T06:47:37.907Z,23.30
2022-08-27T06:50:06.184Z,23.40
2022-08-27T06:52:34.218Z,23.60
2022-08-27T06:55:02.249Z,23.70
2022-08-27T06:57:30.174Z,23.80
2022-08-27T06:59:58.192Z,23.90
2022-08-27T07:02:27.998Z,24.00
2022-08-27T07:04:57.256Z,24.10
2022-08-27T07:07:32.632Z,24.10
2022-08-27T07:10:02.544Z,24.00
2022-08-27T07:12:32.410Z,24.00
2022-08-27T07:15:00.455Z,24.00
2022-08-27T07:17:28.534Z,24.10
2022-08-27T07:19:58.678Z,24.00
2022-08-27T07:22:26.580Z,24.10
2022-08-27T07:24:54.459Z,24.20
2022-08-27T07:27:22.760Z,24.40
2022-08-27T07:29:50.675Z,24.50
2022-08-27T07:32:18.603Z,24.60
2022-08-27T07:34:46.470Z,24.70
2022-08-27T07:37:15.979Z,24.80
2022-08-27T07:39:43.883Z,24.80
2022-08-27T07:42:29.649Z,24.90
2022-08-27T07:44:57.574Z,25.10
2022-08-27T07:47:25.516Z,25.50
2022-08-27T07:49:53.388Z,25.80
2022-08-27T07:52:26.427Z,26.40
2022-08-27T07:54:54.596Z,26.90
2022-08-27T07:57:22.504Z,27.50
2022-08-27T07:59:50.423Z,28.10
2022-08-27T08:02:18.435Z,28.70
2022-08-27T08:04:46.503Z,29.10
2022-08-27T08:07:14.624Z,29.50
2022-08-27T08:09:43.894Z,29.90
2022-08-27T08:12:11.889Z,30.60
2022-08-27T08:14:39.837Z,31.30
2022-08-27T08:17:10.450Z,32.10
2022-08-27T08:19:38.844Z,32.60
2022-08-27T08:22:06.735Z,33.50
2022-08-27T08:24:34.983Z,34.90
2022-08-27T08:27:07.402Z,36.20
2022-08-27T08:29:36.304Z,37.20
2022-08-27T08:32:04.458Z,37.80
2022-08-27T08:34:32.372Z,38.30
2022-08-27T08:37:00.353Z,38.70
2022-08-27T08:39:28.289Z,39.40
2022-08-27T08:41:57.848Z,39.60
2022-08-27T08:44:32.386Z,39.80
2022-08-27T08:47:03.340Z,39.30
2022-08-27T08:49:36.898Z,38.50
2022-08-27T08:52:09.965Z,37.80
2022-08-27T08:54:39.941Z,37.10
2022-08-27T08:57:13.088Z,36.20
2022-08-27T08:59:52.654Z,35.20
2022-08-27T09:02:20.582Z,34.20
2022-08-27T09:04:48.734Z,33.60
2022-08-27T09:07:19.268Z,33.10
2022-08-27T09:09:48.420Z,32.60
2022-08-27T09:12:19.277Z,32.30
2022-08-27T09:14:51.652Z,32.40
2022-08-27T09:17:21.973Z,32.10
2022-08-27T09:19:52.475Z,31.60
2022-08-27T09:22:24.228Z,31.80
2022-08-27T09:24:56.532Z,31.60
2022-08-27T09:27:26.039Z,31.10
2022-08-27T09:29:58.197Z,30.80
2022-08-27T09:32:27.541Z,30.80
2022-08-27T09:34:58.580Z,30.60
2022-08-27T09:37:34.186Z,30.40
2022-08-27T09:40:05.329Z,30.20
2022-08-27T09:42:43.173Z,30.20
2022-08-27T09:45:16.239Z,30.10
2022-08-27T09:47:45.533Z,29.80
2022-08-27T09:50:14.069Z,29.70
2022-08-27T09:52:49.063Z,29.80
2022-08-27T09:55:26.968Z,29.80
2022-08-27T09:57:55.399Z,30.00
2022-08-27T10:00:29.759Z,30.00
2022-08-27T10:03:01.067Z,29.90
2022-08-27T10:05:31.969Z,29.90
2022-08-27T10:08:01.813Z,29.90
2022-08-27T10:10:36.785Z,30.00
2022-08-27T10:13:11.173Z,30.00
2022-08-27T10:15:45.647Z,30.00
2022-08-27T10:18:20.706Z,30.20
2022-08-27T10:20:55.035Z,30.40
2022-08-27T10:23:32.598Z,30.70
2022-08-27T10:26:05.403Z,30.90
2022-08-27T10:28:38.947Z,31.50
2022-08-27T10:31:17.905Z,32.10
2022-08-27T10:33:51.525Z,32.70
2022-08-27T10:36:34.013Z,33.20
2022-08-27T10:39:04.267Z,33.40
2022-08-27T10:41:34.522Z,33.50
2022-08-27T10:44:11.111Z,33.70
2022-08-27T10:46:50.344Z,34.10
2022-08-27T10:49:23.798Z,34.20
2022-08-27T10:51:56.012Z,34.80
2022-08-27T10:54:27.299Z,35.10
2022-08-27T10:57:21.234Z,35.20
2022-08-27T10:59:49.457Z,35.40
2022-08-27T11:02:24.074Z,35.60
2022-08-27T11:04:54.514Z,35.60
2022-08-27T11:07:24.711Z,35.60
2022-08-27T11:09:57.215Z,35.50
2022-08-27T11:12:27.783Z,35.40
2022-08-27T11:14:58.229Z,35.40
2022-08-27T11:17:32.278Z,35.50
2022-08-27T11:20:02.684Z,35.60
2022-08-27T11:22:32.465Z,35.90
2022-08-27T11:25:03.567Z,36.00
2022-08-27T11:27:33.073Z,36.20
2022-08-27T11:30:04.757Z,36.40
2022-08-27T11:32:39.182Z,36.50
2022-08-27T11:35:10.982Z,36.70
2022-08-27T11:37:47.718Z,36.40
2022-08-27T11:40:39.720Z,36.50
2022-08-27T11:43:09.007Z,36.70
2022-08-27T11:45:38.757Z,36.70
2022-08-27T11:48:17.802Z,36.70
2022-08-27T11:50:54.477Z,36.70
2022-08-27T11:53:28.375Z,36.60
2022-08-27T11:55:57.063Z,36.20
2022-08-27T11:58:27.561Z,35.90
2022-08-27T12:00:55.834Z,35.40
2022-08-27T12:03:26.876Z,35.20
2022-08-27T12:06:18.308Z,35.00
2022-08-27T12:08:46.540Z,34.40
2022-08-27T12:11:21.026Z,33.60
2022-08-27T12:13:55.331Z,33.60
2022-08-27T12:16:27.655Z,33.70
2022-08-27T12:19:13.278Z,33.60
2022-08-27T12:21:49.255Z,33.60
2022-08-27T12:24:38.093Z,33.50
2022-08-27T12:27:16.281Z,33.50
2022-08-27T12:29:49.030Z,34.10
2022-08-27T12:32:26.249Z,34.60
2022-08-27T12:35:01.164Z,35.70
2022-08-27T12:37:32.306Z,36.80
2022-08-27T12:40:03.249Z,38.30
2022-08-27T12:42:31.185Z,40.10
2022-08-27T12:44:59.739Z,41.20
2022-08-27T12:47:27.865Z,41.80
2022-08-27T12:49:58.577Z,42.10
2022-08-27T12:52:45.075Z,41.70
2022-08-27T12:55:17.373Z,41.40
2022-08-27T12:57:49.353Z,40.50
2022-08-27T13:00:25.505Z,39.80
2022-08-27T13:03:08.092Z,38.50
2022-08-27T13:05:42.501Z,38.20
2022-08-27T13:08:19.117Z,37.80
2022-08-27T13:10:47.165Z,37.20
2022-08-27T13:13:16.591Z,36.50
2022-08-27T13:15:46.267Z,36.10
2022-08-27T13:18:14.577Z,35.90
2022-08-27T13:20:50.467Z,35.20
2022-08-27T13:23:23.973Z,34.60
2022-08-27T13:25:56.166Z,34.30
2022-08-27T13:28:26.362Z,34.10
2022-08-27T13:30:55.448Z,33.90
2022-08-27T13:33:24.671Z,33.80
2022-08-27T13:35:54.051Z,33.70
2022-08-27T13:38:22.998Z,33.40
2022-08-27T13:40:58.695Z,32.90
2022-08-27T13:43:34.926Z,32.70
2022-08-27T13:46:04.177Z,32.50
2022-08-27T13:48:32.280Z,32.30
2022-08-27T13:51:01.860Z,31.90
2022-08-27T13:53:50.065Z,31.70
2022-08-27T13:56:24.884Z,31.30
2022-08-27T13:58:52.791Z,31.00
2022-08-27T14:01:28.927Z,30.60
2022-08-27T14:03:58.522Z,30.40
2022-08-27T14:06:31.945Z,30.30
2022-08-27T14:09:12.106Z,30.10
2022-08-27T14:11:40.297Z,30.10
2022-08-27T14:14:08.425Z,30.20
2022-08-27T14:16:37.430Z,30.10
2022-08-27T14:19:07.389Z,30.00
2022-08-27T14:21:38.034Z,29.90
2022-08-27T14:24:06.650Z,29.90
2022-08-27T14:26:35.342Z,29.80
2022-08-27T14:29:03.301Z,29.80
2022-08-27T14:31:39.993Z,29.70
2022-08-27T14:34:08.339Z,29.50
2022-08-27T14:36:38.366Z,29.40
2022-08-27T14:39:07.046Z,29.50
2022-08-27T14:41:34.958Z,29.60
2022-08-27T14:44:02.862Z,29.70
2022-08-27T14:46:32.997Z,29.90
2022-08-27T14:49:01.905Z,30.00
2022-08-27T14:51:30.937Z,30.20
2022-08-27T14:54:00.208Z,30.40
2022-08-27T14:56:28.225Z,30.60
2022-08-27T14:58:56.876Z,30.60
2022-08-27T15:01:26.150Z,30.50
2022-08-27T15:03:54.731Z,30.50
2022-08-27T15:06:23.782Z,30.50
2022-08-27T15:08:52.644Z,30.60
2022-08-27T15:11:23.731Z,30.50
2022-08-27T15:13:52.156Z,30.40
2022-08-27T15:16:27.354Z,30.40
2022-08-27T15:19:01.036Z,30.20
2022-08-27T15:21:30.374Z,30.10
2022-08-27T15:23:59.764Z,30.00
2022-08-27T15:26:29.789Z,30.00
2022-08-27T15:29:00.703Z,30.10
2022-08-27T15:31:30.988Z,29.90
2022-08-27T15:33:58.911Z,30.20
2022-08-27T15:36:26.837Z,30.50
2022-08-27T15:38:56.201Z,30.40
2022-08-27T15:41:27.270Z,30.40
2022-08-27T15:43:58.648Z,30.30
2022-08-27T15:46:26.861Z,30.30
2022-08-27T15:48:55.009Z,30.40
2022-08-27T15:51:26.448Z,30.70
2022-08-27T15:53:54.482Z,31.10
2022-08-27T15:56:23.471Z,31.50
2022-08-27T15:58:51.465Z,31.50
2022-08-27T16:01:24.336Z,31.60
2022-08-27T16:03:52.415Z,31.70
2022-08-27T16:06:21.475Z,31.60
2022-08-27T16:08:50.325Z,31.30
2022-08-27T16:11:18.267Z,31.30
2022-08-27T16:13:46.201Z,31.20
2022-08-27T16:16:14.125Z,31.00
2022-08-27T16:18:44.332Z,30.90
2022-08-27T16:21:12.246Z,30.90
2022-08-27T16:23:40.256Z,30.70
2022-08-27T16:26:08.206Z,30.50
2022-08-27T16:28:36.124Z,30.30
2022-08-27T16:31:04.412Z,30.10
2022-08-27T16:33:32.475Z,29.90
2022-08-27T16:36:02.050Z,29.70
2022-08-27T16:38:29.950Z,29.00
2022-08-27T16:40:57.854Z,28.20
2022-08-27T16:43:26.537Z,27.60
2022-08-27T16:45:56.560Z,27.00
2022-08-27T16:48:42.257Z,26.50
2022-08-27T16:51:14.446Z,26.10
2022-08-27T16:53:43.106Z,25.80
2022-08-27T16:56:11.177Z,25.50
2022-08-27T16:58:42.022Z,25.30
2022-08-27T17:01:11.852Z,25.00
2022-08-27T17:04:06.800Z,24.80
2022-08-27T17:06:32.299Z,24.60
2022-08-27T17:09:00.420Z,24.20
2022-08-27T17:11:29.325Z,24.00
2022-08-27T17:13:58.701Z,23.80
2022-08-27T17:16:29.593Z,23.50
2022-08-27T17:18:59.264Z,23.40
2022-08-27T17:21:30.027Z,23.30
2022-08-27T17:24:02.328Z,23.20
2022-08-27T17:26:31.772Z,23.20
2022-08-27T17:28:59.987Z,23.20
2022-08-27T17:31:30.127Z,23.20
2022-08-27T17:33:59.687Z,23.30
2022-08-27T17:36:28.904Z,23.20
2022-08-27T17:38:57.471Z,23.20
2022-08-27T17:41:32.969Z,23.30
2022-08-27T17:44:05.914Z,23.30
2022-08-27T17:46:34.137Z,23.40
2022-08-27T17:49:02.092Z,23.30
2022-08-27T17:51:30.119Z,23.20
2022-08-27T17:54:01.236Z,23.10
2022-08-27T17:56:30.895Z,23.10
2022-08-27T17:58:59.011Z,23.10
2022-08-27T18:01:29.180Z,23.00
2022-08-27T18:03:57.165Z,23.00
2022-08-27T18:06:25.541Z,22.90
2022-08-27T18:08:53.829Z,22.80
2022-08-27T18:11:21.985Z,22.70
2022-08-27T18:13:53.119Z,22.70
2022-08-27T18:16:21.192Z,22.70
2022-08-27T18:18:49.259Z,22.60
2022-08-27T18:21:25.623Z,22.60
2022-08-27T18:23:54.763Z,22.50
2022-08-27T18:26:24.264Z,22.40
2022-08-27T18:28:53.725Z,22.30
2022-08-27T18:31:23.047Z,22.20
2022-08-27T18:33:51.052Z,22.20
2022-08-27T18:36:19.464Z,22.20
2022-08-27T18:38:47.339Z,22.20
2022-08-27T18:41:15.241Z,22.30
2022-08-27T18:43:43.234Z,22.30
2022-08-27T18:46:12.486Z,22.30
2022-08-27T18:48:40.551Z,22.40
2022-08-27T18:51:09.172Z,22.40
2022-08-27T18:53:40.590Z,22.40
2022-08-27T18:56:09.349Z,22.40
2022-08-27T18:58:38.831Z,22.40
2022-08-27T19:01:08.052Z,22.40
2022-08-27T19:03:39.788Z,22.30
2022-08-27T19:06:08.979Z,22.30
2022-08-27T19:08:38.416Z,22.30
2022-08-27T19:11:07.120Z,22.30
2022-08-27T19:13:35.254Z,22.40
2022-08-27T19:16:04.623Z,22.40
2022-08-27T19:18:34.151Z,22.40
2022-08-27T19:21:03.733Z,22.40
2022-08-27T19:23:31.694Z,22.40
2022-08-27T19:26:00.124Z,22.40
2022-08-27T19:28:28.535Z,22.40
2022-08-27T19:30:59.630Z,22.40
2022-08-27T19:33:27.681Z,22.40
2022-08-27T19:35:55.837Z,22.40
2022-08-27T19:38:25.853Z,22.40
2022-08-27T19:40:53.957Z,22.40
2022-08-27T19:43:21.989Z,22.40
2022-08-27T19:45:50.004Z,22.40
2022-08-27T19:48:17.914Z,22.40
2022-08-27T19:50:46.361Z,22.40
2022-08-27T19:53:16.574Z,22.50
2022-08-27T19:55:46.159Z,22.50
2022-08-27T19:58:14.324Z,22.50
2022-08-27T20:00:42.551Z,22.50
2022-08-27T20:03:10.611Z,22.40
2022-08-27T20:05:39.042Z,22.40
2022-08-27T20:08:07.401Z,22.40
2022-08-27T20:10:36.021Z,22.30
2022-08-27T20:13:06.821Z,22.30
2022-08-27T20:15:34.914Z,22.30
2022-08-27T20:18:03.774Z,22.10
2022-08-27T20:20:32.355Z,22.00
2022-08-27T20:23:02.748Z,21.90
2022-08-27T20:25:30.844Z,21.80
2022-08-27T20:27:58.995Z,21.80
2022-08-27T20:30:29.414Z,21.70
2022-08-27T20:32:57.921Z,21.70
2022-08-27T20:35:26.006Z,21.70
2022-08-27T20:37:54.210Z,21.60
2022-08-27T20:40:23.684Z,21.60
2022-08-27T20:42:51.679Z,21.60
2022-08-27T20:45:20.224Z,21.60
2022-08-27T20:47:50.330Z,21.60
2022-08-27T20:50:19.257Z,21.60
2022-08-27T20:52:47.381Z,21.60
2022-08-27T20:55:17.381Z,21.60
2022-08-27T20:58:03.097Z,21.60
2022-08-27T21:00:34.374Z,21.60
2022-08-27T21:03:03.796Z,21.60
2022-08-27T21:05:33.192Z,21.60
2022-08-27T21:08:01.285Z,21.60
2022-08-27T21:10:29.522Z,21.70
2022-08-27T21:12:57.564Z,21.70
2022-08-27T21:15:25.566Z,21.60
2022-08-27T21:17:53.617Z,21.60
2022-08-27T21:20:22.993Z,21.60
2022-08-27T21:22:51.579Z,21.60
2022-08-27T21:25:19.565Z,21.60
2022-08-27T21:27:47.571Z,21.60
2022-08-27T21:30:15.525Z,21.50
2022-08-27T21:32:43.414Z,21.50
2022-08-27T21:35:11.714Z,21.40
2022-08-27T21:37:41.787Z,21.40
2022-08-27T21:40:10.320Z,21.40
2022-08-27T21:42:38.292Z,21.30
2022-08-27T21:45:06.701Z,21.20
2022-08-27T21:47:35.877Z,21.10
2022-08-27T21:50:03.919Z,21.10
2022-08-27T21:52:32.190Z,21.00
2022-08-27T21:55:01.673Z,20.90
2022-08-27T21:57:29.633Z,20.80
2022-08-27T21:59:57.684Z,20.70
2022-08-27T22:02:39.785Z,20.70
2022-08-27T22:05:08.954Z,20.60
2022-08-27T22:07:36.888Z,20.50
2022-08-27T22:10:07.416Z,20.50
2022-08-27T22:12:35.738Z,20.40
2022-08-27T22:15:04.252Z,20.40
2022-08-27T22:17:32.232Z,20.40
2022-08-27T22:20:00.146Z,20.30
2022-08-27T22:22:30.848Z,20.20
2022-08-27T22:24:58.917Z,20.10
2022-08-27T22:27:28.369Z,20.10
2022-08-27T22:29:56.287Z,20.00
2022-08-27T22:32:24.177Z,20.00
2022-08-27T22:34:52.092Z,20.00
2022-08-27T22:37:20.066Z,19.90
2022-08-27T22:39:47.945Z,19.90
2022-08-27T22:42:17.607Z,19.90
2022-08-27T22:44:47.363Z,19.90
2022-08-27T22:47:15.543Z,19.90
2022-08-27T22:49:44.220Z,19.90
2022-08-27T22:52:12.109Z,19.90
2022-08-27T22:54:40.128Z,19.90
2022-08-27T22:57:10.422Z,19.80
2022-08-27T22:59:39.044Z,19.90
2022-08-27T23:02:10.468Z,19.80
2022-08-27T23:04:54.638Z,19.80
2022-08-27T23:07:23.592Z,19.80
2022-08-27T23:09:51.817Z,19.70
2022-08-27T23:12:20.127Z,19.60
2022-08-27T23:14:48.198Z,19.60
2022-08-27T23:17:17.493Z,19.60
2022-08-27T23:19:45.571Z,19.50
2022-08-27T23:22:13.504Z,19.40
2022-08-27T23:24:55.262Z,19.40
2022-08-27T23:27:32.340Z,19.30
2022-08-27T23:30:01.730Z,19.30
2022-08-27T23:32:31.173Z,19.20
2022-08-27T23:34:59.413Z,19.20
2022-08-27T23:37:27.625Z,19.10
2022-08-27T23:39:56.029Z,19.10
2022-08-27T23:42:24.523Z,19.10
2022-08-27T23:44:52.355Z,19.20
2022-08-27T23:47:20.267Z,19.20
2022-08-27T23:49:49.569Z,19.30
2022-08-27T23:52:17.560Z,19.40
2022-08-27T23:54:45.476Z,19.50
2022-08-27T23:57:13.313Z,19.60
2022-08-27T23:59:41.287Z,19.60
